sensor_id;sensor_type;location;lat;lon;timestamp;pressure;altitude;pressure_sealevel;temperature;humidity
41467;BME280;27205;53.690;19.948;2022-09-12T00:04:24;99614.94;;;9.35;80.84
41467;BME280;27205;53.690;19.948;2022-09-12T00:09:28;99612.15;;;9.36;81.15
41467;BME280;27205;53.690;19.948;2022-09-12T00:14:32;99613.35;;;9.36;81.76
41467;BME280;27205;53.690;19.948;2022-09-12T00:19:35;99614.76;;;9.33;82.51
41467;BME280;27205;53.690;19.948;2022-09-12T00:24:38;99609.70;;;9.38;82.63
41467;BME280;27205;53.690;19.948;2022-09-12T00:29:42;99607.71;;;9.39;83.11
41467;BME280;27205;53.690;19.948;2022-09-12T00:34:46;99606.02;;;9.37;83.23
41467;BME280;27205;53.690;19.948;2022-09-12T00:39:49;99602.80;;;9.38;82.96
41467;BME280;27205;53.690;19.948;2022-09-12T00:44:52;99602.13;;;9.39;83.80
41467;BME280;27205;53.690;19.948;2022-09-12T00:50:11;99604.67;;;9.44;83.64
41467;BME280;27205;53.690;19.948;2022-09-12T00:55:19;99606.67;;;9.44;84.80
41467;BME280;27205;53.690;19.948;2022-09-12T01:00:26;99613.54;;;9.45;85.71
41467;BME280;27205;53.690;19.948;2022-09-12T01:05:33;99617.33;;;9.47;85.89
41467;BME280;27205;53.690;19.948;2022-09-12T01:10:37;99612.10;;;9.48;86.61
41467;BME280;27205;53.690;19.948;2022-09-12T01:15:42;99610.83;;;9.47;86.26
41467;BME280;27205;53.690;19.948;2022-09-12T01:20:49;99609.80;;;9.46;86.57
41467;BME280;27205;53.690;19.948;2022-09-12T01:31:36;99608.25;;;9.40;86.89
41467;BME280;27205;53.690;19.948;2022-09-12T01:42:20;99609.20;;;9.36;87.54
41467;BME280;27205;53.690;19.948;2022-09-12T01:47:40;99611.89;;;9.32;87.91
41467;BME280;27205;53.690;19.948;2022-09-12T01:53:19;99615.98;;;9.32;87.71
41467;BME280;27205;53.690;19.948;2022-09-12T01:58:49;99620.80;;;9.31;88.30
41467;BME280;27205;53.690;19.948;2022-09-12T02:14:30;99614.82;;;9.32;88.67
41467;BME280;27205;53.690;19.948;2022-09-12T02:19:43;99613.52;;;9.31;89.15
41467;BME280;27205;53.690;19.948;2022-09-12T02:24:51;99619.71;;;9.29;89.35
41467;BME280;27205;53.690;19.948;2022-09-12T02:29:57;99627.11;;;9.28;89.59
41467;BME280;27205;53.690;19.948;2022-09-12T02:35:31;99627.39;;;9.27;89.37
41467;BME280;27205;53.690;19.948;2022-09-12T02:40:37;99627.13;;;9.28;89.70
41467;BME280;27205;53.690;19.948;2022-09-12T02:45:41;99630.75;;;9.27;89.76
41467;BME280;27205;53.690;19.948;2022-09-12T02:50:44;99630.86;;;9.30;89.55
41467;BME280;27205;53.690;19.948;2022-09-12T02:55:49;99635.95;;;9.36;89.63
41467;BME280;27205;53.690;19.948;2022-09-12T03:22:15;99644.96;;;9.69;90.00
41467;BME280;27205;53.690;19.948;2022-09-12T03:27:32;99647.23;;;9.69;89.94
41467;BME280;27205;53.690;19.948;2022-09-12T03:37:48;99659.71;;;9.75;89.93
41467;BME280;27205;53.690;19.948;2022-09-12T03:42:52;99662.83;;;9.72;89.71
41467;BME280;27205;53.690;19.948;2022-09-12T03:47:55;99665.92;;;9.67;89.74
41467;BME280;27205;53.690;19.948;2022-09-12T03:53:00;99666.02;;;9.62;89.76
41467;BME280;27205;53.690;19.948;2022-09-12T03:58:03;99666.96;;;9.55;89.90
41467;BME280;27205;53.690;19.948;2022-09-12T04:03:07;99666.38;;;9.51;90.11
41467;BME280;27205;53.690;19.948;2022-09-12T04:08:10;99666.80;;;9.49;89.71
41467;BME280;27205;53.690;19.948;2022-09-12T04:13:14;99672.90;;;9.47;90.16
41467;BME280;27205;53.690;19.948;2022-09-12T04:18:17;99679.39;;;9.49;90.17
41467;BME280;27205;53.690;19.948;2022-09-12T04:23:21;99682.92;;;9.55;90.14
41467;BME280;27205;53.690;19.948;2022-09-12T04:28:25;99688.58;;;9.61;90.44
41467;BME280;27205;53.690;19.948;2022-09-12T04:33:31;99691.28;;;9.68;90.57
41467;BME280;27205;53.690;19.948;2022-09-12T04:38:35;99695.40;;;9.76;90.92
41467;BME280;27205;53.690;19.948;2022-09-12T04:43:39;99702.34;;;9.86;91.08
41467;BME280;27205;53.690;19.948;2022-09-12T04:48:42;99701.81;;;9.93;90.91
41467;BME280;27205;53.690;19.948;2022-09-12T04:53:49;99702.39;;;10.01;91.21
41467;BME280;27205;53.690;19.948;2022-09-12T04:58:53;99705.94;;;10.09;91.23
41467;BME280;27205;53.690;19.948;2022-09-12T05:03:57;99702.77;;;10.13;91.22
41467;BME280;27205;53.690;19.948;2022-09-12T05:09:04;99701.45;;;10.15;90.94
41467;BME280;27205;53.690;19.948;2022-09-12T05:14:09;99702.94;;;10.14;91.21
41467;BME280;27205;53.690;19.948;2022-09-12T05:19:13;99703.90;;;10.17;90.97
41467;BME280;27205;53.690;19.948;2022-09-12T05:24:16;99700.55;;;10.21;91.11
41467;BME280;27205;53.690;19.948;2022-09-12T05:29:19;99703.31;;;10.24;91.27
41467;BME280;27205;53.690;19.948;2022-09-12T05:34:23;99705.46;;;10.26;91.62
41467;BME280;27205;53.690;19.948;2022-09-12T05:39:26;99707.74;;;10.31;91.68
41467;BME280;27205;53.690;19.948;2022-09-12T05:44:30;99709.56;;;10.45;91.74
41467;BME280;27205;53.690;19.948;2022-09-12T05:49:34;99713.92;;;10.63;92.03
41467;BME280;27205;53.690;19.948;2022-09-12T05:54:38;99718.20;;;10.81;92.08
41467;BME280;27205;53.690;19.948;2022-09-12T05:59:41;99725.77;;;11.01;92.30
41467;BME280;27205;53.690;19.948;2022-09-12T06:04:45;99722.64;;;11.23;91.90
41467;BME280;27205;53.690;19.948;2022-09-12T06:09:48;99722.43;;;11.46;91.89
41467;BME280;27205;53.690;19.948;2022-09-12T06:14:51;99723.39;;;11.70;91.74
41467;BME280;27205;53.690;19.948;2022-09-12T06:19:56;99728.32;;;11.92;91.60
41467;BME280;27205;53.690;19.948;2022-09-12T06:24:59;99731.47;;;12.11;91.72
41467;BME280;27205;53.690;19.948;2022-09-12T06:30:03;99731.07;;;12.30;91.38
41467;BME280;27205;53.690;19.948;2022-09-12T06:35:07;99734.15;;;12.56;91.66
41467;BME280;27205;53.690;19.948;2022-09-12T06:40:10;99739.61;;;12.81;91.30
41467;BME280;27205;53.690;19.948;2022-09-12T06:45:14;99750.00;;;13.07;90.98
41467;BME280;27205;53.690;19.948;2022-09-12T06:50:18;99759.34;;;13.25;90.70
41467;BME280;27205;53.690;19.948;2022-09-12T06:55:21;99756.89;;;13.42;90.21
41467;BME280;27205;53.690;19.948;2022-09-12T07:00:29;99758.65;;;13.74;90.29
41467;BME280;27205;53.690;19.948;2022-09-12T07:05:33;99761.72;;;13.95;89.54
41467;BME280;27205;53.690;19.948;2022-09-12T07:10:37;99768.02;;;14.17;88.95
41467;BME280;27205;53.690;19.948;2022-09-12T07:15:40;99778.13;;;14.38;87.78
41467;BME280;27205;53.690;19.948;2022-09-12T07:20:43;99775.45;;;14.51;87.13
41467;BME280;27205;53.690;19.948;2022-09-12T07:25:54;99781.82;;;14.59;86.32
41467;BME280;27205;53.690;19.948;2022-09-12T07:31:12;99783.11;;;14.73;85.42
41467;BME280;27205;53.690;19.948;2022-09-12T07:36:18;99792.86;;;14.93;84.25
41467;BME280;27205;53.690;19.948;2022-09-12T07:41:25;99792.47;;;15.08;83.12
41467;BME280;27205;53.690;19.948;2022-09-12T07:46:30;99801.41;;;15.25;81.82
41467;BME280;27205;53.690;19.948;2022-09-12T07:51:34;99810.73;;;15.34;80.09
41467;BME280;27205;53.690;19.948;2022-09-12T07:56:38;99813.09;;;15.33;78.18
41467;BME280;27205;53.690;19.948;2022-09-12T08:01:41;99813.29;;;15.37;77.67
41467;BME280;27205;53.690;19.948;2022-09-12T08:06:45;99815.35;;;15.47;77.64
41467;BME280;27205;53.690;19.948;2022-09-12T08:11:48;99815.49;;;15.54;77.30
41467;BME280;27205;53.690;19.948;2022-09-12T08:16:52;99814.92;;;15.69;77.29
41467;BME280;27205;53.690;19.948;2022-09-12T08:21:55;99814.83;;;15.82;77.26
41467;BME280;27205;53.690;19.948;2022-09-12T08:26:59;99823.23;;;15.82;76.67
41467;BME280;27205;53.690;19.948;2022-09-12T08:32:02;99828.80;;;15.71;76.32
41467;BME280;27205;53.690;19.948;2022-09-12T08:37:05;99830.90;;;15.78;75.37
41467;BME280;27205;53.690;19.948;2022-09-12T08:42:10;99832.13;;;16.00;74.70
41467;BME280;27205;53.690;19.948;2022-09-12T08:47:32;99831.94;;;16.28;75.03
41467;BME280;27205;53.690;19.948;2022-09-12T08:57:58;99832.94;;;16.37;74.38
41467;BME280;27205;53.690;19.948;2022-09-12T09:08:52;99839.33;;;16.31;74.52
41467;BME280;27205;53.690;19.948;2022-09-12T09:19:45;99846.34;;;16.67;73.42
41467;BME280;27205;53.690;19.948;2022-09-12T09:24:58;99844.75;;;16.98;73.19
41467;BME280;27205;53.690;19.948;2022-09-12T09:30:07;99844.18;;;16.91;71.92
41467;BME280;27205;53.690;19.948;2022-09-12T09:46:23;99852.08;;;17.56;68.14
41467;BME280;27205;53.690;19.948;2022-09-12T09:51:34;99848.42;;;17.74;67.52
41467;BME280;27205;53.690;19.948;2022-09-12T09:56:39;99852.52;;;18.06;67.16
41467;BME280;27205;53.690;19.948;2022-09-12T10:06:56;99857.88;;;17.98;60.85
41467;BME280;27205;53.690;19.948;2022-09-12T10:12:19;99863.96;;;17.87;61.09
41467;BME280;27205;53.690;19.948;2022-09-12T10:17:30;99867.09;;;17.83;60.66
41467;BME280;27205;53.690;19.948;2022-09-12T10:22:38;99862.64;;;18.12;61.33
41467;BME280;27205;53.690;19.948;2022-09-12T10:27:41;99863.41;;;18.28;59.99
41467;BME280;27205;53.690;19.948;2022-09-12T10:32:47;99865.73;;;18.33;59.99
41467;BME280;27205;53.690;19.948;2022-09-12T10:38:05;99868.48;;;18.57;60.00
41467;BME280;27205;53.690;19.948;2022-09-12T10:43:36;99870.83;;;18.60;59.70
41467;BME280;27205;53.690;19.948;2022-09-12T10:48:42;99878.14;;;18.67;59.90
41467;BME280;27205;53.690;19.948;2022-09-12T10:53:45;99883.14;;;18.57;59.34
41467;BME280;27205;53.690;19.948;2022-09-12T11:09:46;99885.13;;;18.26;59.46
41467;BME280;27205;53.690;19.948;2022-09-12T11:15:02;99878.64;;;18.34;59.63
41467;BME280;27205;53.690;19.948;2022-09-12T11:36:01;99871.22;;;17.75;59.91
41467;BME280;27205;53.690;19.948;2022-09-12T11:41:13;99872.58;;;17.91;59.99
41467;BME280;27205;53.690;19.948;2022-09-12T11:51:41;99878.48;;;19.10;58.88
41467;BME280;27205;53.690;19.948;2022-09-12T11:56:46;99889.38;;;18.81;57.77
41467;BME280;27205;53.690;19.948;2022-09-12T12:01:56;99882.33;;;18.45;58.09
41467;BME280;27205;53.690;19.948;2022-09-12T12:07:08;99886.30;;;18.68;58.46
41467;BME280;27205;53.690;19.948;2022-09-12T12:12:17;99894.10;;;18.88;58.48
41467;BME280;27205;53.690;19.948;2022-09-12T12:17:24;99889.21;;;18.89;57.60
41467;BME280;27205;53.690;19.948;2022-09-12T12:22:28;99889.80;;;18.75;57.38
41467;BME280;27205;53.690;19.948;2022-09-12T12:32:47;99900.56;;;19.05;57.18
41467;BME280;27205;53.690;19.948;2022-09-12T12:37:52;99893.70;;;18.83;56.53
41467;BME280;27205;53.690;19.948;2022-09-12T12:43:01;99885.97;;;18.49;56.54
41467;BME280;27205;53.690;19.948;2022-09-12T12:48:12;99884.34;;;18.37;56.93
41467;BME280;27205;53.690;19.948;2022-09-12T12:53:22;99882.41;;;18.66;57.08
41467;BME280;27205;53.690;19.948;2022-09-12T12:58:39;99890.01;;;19.05;56.57
41467;BME280;27205;53.690;19.948;2022-09-12T13:03:46;99889.40;;;18.71;56.34
41467;BME280;27205;53.690;19.948;2022-09-12T13:19:46;99899.34;;;17.96;57.15
41467;BME280;27205;53.690;19.948;2022-09-12T13:24:50;99901.11;;;18.17;56.79
41467;BME280;27205;53.690;19.948;2022-09-12T13:30:10;99891.45;;;18.21;56.69
41467;BME280;27205;53.690;19.948;2022-09-12T13:35:29;99890.13;;;18.19;56.63
41467;BME280;27205;53.690;19.948;2022-09-12T13:40:53;99884.05;;;18.26;56.11
41467;BME280;27205;53.690;19.948;2022-09-12T13:45:59;99877.00;;;18.48;55.92
41467;BME280;27205;53.690;19.948;2022-09-12T13:51:03;99889.66;;;19.02;54.67
41467;BME280;27205;53.690;19.948;2022-09-12T13:56:14;99895.73;;;19.11;52.91
41467;BME280;27205;53.690;19.948;2022-09-12T14:01:18;99888.94;;;19.02;52.57
41467;BME280;27205;53.690;19.948;2022-09-12T14:06:22;99890.98;;;19.17;52.00
41467;BME280;27205;53.690;19.948;2022-09-12T14:11:28;99891.92;;;19.25;51.81
41467;BME280;27205;53.690;19.948;2022-09-12T14:16:37;99891.40;;;19.43;51.40
41467;BME280;27205;53.690;19.948;2022-09-12T14:21:42;99900.35;;;19.26;51.63
41467;BME280;27205;53.690;19.948;2022-09-12T14:26:45;99890.88;;;19.05;51.98
41467;BME280;27205;53.690;19.948;2022-09-12T14:32:03;99897.09;;;22.37;48.87
41467;BME280;27205;53.690;19.948;2022-09-12T14:37:07;99903.75;;;26.13;43.62
41467;BME280;27205;53.690;19.948;2022-09-12T14:42:19;99918.08;;;28.83;41.09
41467;BME280;27205;53.690;19.948;2022-09-12T14:47:25;99937.23;;;31.52;37.80
41467;BME280;27205;53.690;19.948;2022-09-12T14:52:32;99950.85;;;32.89;35.16
41467;BME280;27205;53.690;19.948;2022-09-12T14:57:39;99946.26;;;34.50;32.16
41467;BME280;27205;53.690;19.948;2022-09-12T15:02:43;99952.52;;;36.21;30.78
41467;BME280;27205;53.690;19.948;2022-09-12T15:18:34;99949.77;;;39.85;24.49
41467;BME280;27205;53.690;19.948;2022-09-12T15:23:53;99952.08;;;40.28;22.43
41467;BME280;27205;53.690;19.948;2022-09-12T15:28:56;99948.05;;;40.23;22.10
41467;BME280;27205;53.690;19.948;2022-09-12T15:34:01;99944.27;;;40.33;21.18
41467;BME280;27205;53.690;19.948;2022-09-12T15:39:04;99939.99;;;40.49;20.79
41467;BME280;27205;53.690;19.948;2022-09-12T15:44:11;99950.92;;;41.01;21.55
41467;BME280;27205;53.690;19.948;2022-09-12T15:49:15;99962.87;;;41.39;20.73
41467;BME280;27205;53.690;19.948;2022-09-12T15:54:18;99951.84;;;40.45;19.86
41467;BME280;27205;53.690;19.948;2022-09-12T15:59:22;99956.80;;;40.22;20.31
41467;BME280;27205;53.690;19.948;2022-09-12T16:04:28;99957.10;;;39.36;20.07
41467;BME280;27205;53.690;19.948;2022-09-12T16:09:31;99955.36;;;37.25;20.47
41467;BME280;27205;53.690;19.948;2022-09-12T16:14:35;99945.98;;;33.62;22.01
41467;BME280;27205;53.690;19.948;2022-09-12T16:19:38;99948.10;;;32.74;22.93
41467;BME280;27205;53.690;19.948;2022-09-12T16:24:41;99949.89;;;32.69;23.42
41467;BME280;27205;53.690;19.948;2022-09-12T16:29:44;99946.67;;;29.24;25.00
41467;BME280;27205;53.690;19.948;2022-09-12T16:34:48;99932.77;;;25.67;27.23
41467;BME280;27205;53.690;19.948;2022-09-12T16:39:52;99938.80;;;26.04;27.96
41467;BME280;27205;53.690;19.948;2022-09-12T16:44:56;99937.33;;;25.58;28.37
41467;BME280;27205;53.690;19.948;2022-09-12T16:49:59;99935.82;;;23.64;29.79
41467;BME280;27205;53.690;19.948;2022-09-12T16:55:03;99929.27;;;21.91;31.02
41467;BME280;27205;53.690;19.948;2022-09-12T17:00:07;99923.63;;;20.50;32.42
41467;BME280;27205;53.690;19.948;2022-09-12T17:05:11;99920.35;;;19.20;33.40
41467;BME280;27205;53.690;19.948;2022-09-12T17:10:14;99918.61;;;18.14;34.94
41467;BME280;27205;53.690;19.948;2022-09-12T17:15:18;99917.37;;;17.32;35.38
41467;BME280;27205;53.690;19.948;2022-09-12T17:20:21;99918.42;;;16.72;35.91
41467;BME280;27205;53.690;19.948;2022-09-12T17:25:24;99909.77;;;16.20;37.19
41467;BME280;27205;53.690;19.948;2022-09-12T17:30:33;99909.56;;;15.69;37.75
41467;BME280;27205;53.690;19.948;2022-09-12T17:35:38;99914.58;;;15.26;38.91
41467;BME280;27205;53.690;19.948;2022-09-12T17:40:42;99915.01;;;14.86;39.82
41467;BME280;27205;53.690;19.948;2022-09-12T17:46:01;99926.49;;;14.49;40.52
41467;BME280;27205;53.690;19.948;2022-09-12T17:51:09;99924.10;;;14.12;41.48
41467;BME280;27205;53.690;19.948;2022-09-12T17:56:13;99922.65;;;13.80;42.70
41467;BME280;27205;53.690;19.948;2022-09-12T18:01:17;99928.05;;;13.58;42.87
41467;BME280;27205;53.690;19.948;2022-09-12T18:06:40;99936.77;;;13.34;43.51
41467;BME280;27205;53.690;19.948;2022-09-12T18:11:52;99936.64;;;13.10;44.34
41467;BME280;27205;53.690;19.948;2022-09-12T18:16:56;99931.81;;;12.88;44.81
41467;BME280;27205;53.690;19.948;2022-09-12T18:22:00;99925.60;;;12.70;44.92
41467;BME280;27205;53.690;19.948;2022-09-12T18:27:04;99932.27;;;12.57;45.80
41467;BME280;27205;53.690;19.948;2022-09-12T18:32:07;99928.29;;;12.52;46.55
41467;BME280;27205;53.690;19.948;2022-09-12T18:37:10;99929.38;;;12.52;47.07
41467;BME280;27205;53.690;19.948;2022-09-12T18:42:13;99931.75;;;12.51;47.43
41467;BME280;27205;53.690;19.948;2022-09-12T18:47:17;99935.93;;;12.45;47.79
41467;BME280;27205;53.690;19.948;2022-09-12T18:52:20;99927.42;;;12.36;47.87
41467;BME280;27205;53.690;19.948;2022-09-12T18:57:24;99929.04;;;12.23;47.98
41467;BME280;27205;53.690;19.948;2022-09-12T19:02:27;99928.61;;;12.10;49.52
41467;BME280;27205;53.690;19.948;2022-09-12T19:07:31;99917.41;;;11.99;49.49
41467;BME280;27205;53.690;19.948;2022-09-12T19:12:34;99916.66;;;11.90;49.98
41467;BME280;27205;53.690;19.948;2022-09-12T19:17:38;99923.21;;;11.81;50.65
41467;BME280;27205;53.690;19.948;2022-09-12T19:22:41;99921.99;;;11.75;50.78
41467;BME280;27205;53.690;19.948;2022-09-12T19:27:45;99922.87;;;11.73;51.15
41467;BME280;27205;53.690;19.948;2022-09-12T19:32:51;99915.21;;;11.71;51.83
41467;BME280;27205;53.690;19.948;2022-09-12T19:37:54;99911.80;;;11.64;51.99
41467;BME280;27205;53.690;19.948;2022-09-12T19:42:57;99909.88;;;11.58;53.35
41467;BME280;27205;53.690;19.948;2022-09-12T19:48:01;99910.25;;;11.54;53.71
41467;BME280;27205;53.690;19.948;2022-09-12T19:53:04;99906.20;;;11.50;54.27
41467;BME280;27205;53.690;19.948;2022-09-12T19:58:08;99903.42;;;11.46;54.73
41467;BME280;27205;53.690;19.948;2022-09-12T20:03:12;99900.73;;;11.43;55.53
41467;BME280;27205;53.690;19.948;2022-09-12T20:08:16;99894.73;;;11.39;55.77
41467;BME280;27205;53.690;19.948;2022-09-12T20:13:19;99890.27;;;11.33;55.91
41467;BME280;27205;53.690;19.948;2022-09-12T20:18:22;99890.06;;;11.23;56.19
41467;BME280;27205;53.690;19.948;2022-09-12T20:23:27;99885.42;;;11.13;56.67
41467;BME280;27205;53.690;19.948;2022-09-12T20:28:30;99887.46;;;10.99;57.41
41467;BME280;27205;53.690;19.948;2022-09-12T20:33:34;99884.14;;;10.90;57.83
41467;BME280;27205;53.690;19.948;2022-09-12T20:38:37;99881.16;;;10.85;57.99
41467;BME280;27205;53.690;19.948;2022-09-12T20:43:41;99879.98;;;10.82;58.51
41467;BME280;27205;53.690;19.948;2022-09-12T20:48:44;99877.13;;;10.81;58.29
41467;BME280;27205;53.690;19.948;2022-09-12T20:53:55;99876.14;;;10.74;58.49
41467;BME280;27205;53.690;19.948;2022-09-12T20:58:59;99872.59;;;10.63;58.34
41467;BME280;27205;53.690;19.948;2022-09-12T21:04:03;99869.77;;;10.52;58.55
41467;BME280;27205;53.690;19.948;2022-09-12T21:09:06;99868.17;;;10.42;58.74
41467;BME280;27205;53.690;19.948;2022-09-12T21:14:09;99860.54;;;10.33;58.58
41467;BME280;27205;53.690;19.948;2022-09-12T21:19:13;99860.95;;;10.24;58.62
41467;BME280;27205;53.690;19.948;2022-09-12T21:24:16;99861.64;;;10.09;59.37
41467;BME280;27205;53.690;19.948;2022-09-12T21:29:20;99862.41;;;9.97;59.49
41467;BME280;27205;53.690;19.948;2022-09-12T21:34:23;99867.98;;;9.80;59.79
41467;BME280;27205;53.690;19.948;2022-09-12T21:39:26;99864.34;;;9.68;60.10
41467;BME280;27205;53.690;19.948;2022-09-12T21:44:30;99862.29;;;9.62;60.54
41467;BME280;27205;53.690;19.948;2022-09-12T21:49:33;99859.77;;;9.55;60.74
41467;BME280;27205;53.690;19.948;2022-09-12T21:54:36;99857.40;;;9.48;61.80
41467;BME280;27205;53.690;19.948;2022-09-12T21:59:39;99850.03;;;9.39;62.48
41467;BME280;27205;53.690;19.948;2022-09-12T22:04:43;99847.27;;;9.31;62.54
41467;BME280;27205;53.690;19.948;2022-09-12T22:09:46;99835.97;;;9.21;62.51
41467;BME280;27205;53.690;19.948;2022-09-12T22:14:50;99837.17;;;9.13;62.03
41467;BME280;27205;53.690;19.948;2022-09-12T22:19:53;99835.81;;;9.07;62.77
41467;BME280;27205;53.690;19.948;2022-09-12T22:24:57;99835.48;;;9.06;63.16
41467;BME280;27205;53.690;19.948;2022-09-12T22:30:01;99843.08;;;9.03;63.47
41467;BME280;27205;53.690;19.948;2022-09-12T22:35:04;99837.25;;;8.97;63.71
41467;BME280;27205;53.690;19.948;2022-09-12T22:40:09;99836.46;;;8.91;63.90
41467;BME280;27205;53.690;19.948;2022-09-12T22:45:14;99835.80;;;8.87;64.20
41467;BME280;27205;53.690;19.948;2022-09-12T22:50:17;99836.73;;;8.84;64.27
41467;BME280;27205;53.690;19.948;2022-09-12T22:55:20;99829.67;;;8.80;64.33
41467;BME280;27205;53.690;19.948;2022-09-12T23:00:23;99826.58;;;8.76;64.35
41467;BME280;27205;53.690;19.948;2022-09-12T23:05:29;99824.45;;;8.70;64.86
41467;BME280;27205;53.690;19.948;2022-09-12T23:10:37;99829.06;;;8.61;64.84
41467;BME280;27205;53.690;19.948;2022-09-12T23:15:40;99827.39;;;8.53;65.27
41467;BME280;27205;53.690;19.948;2022-09-12T23:20:44;99823.09;;;8.40;65.55
41467;BME280;27205;53.690;19.948;2022-09-12T23:26:11;99812.48;;;8.28;65.58
41467;BME280;27205;53.690;19.948;2022-09-12T23:31:15;99803.61;;;8.23;65.64
41467;BME280;27205;53.690;19.948;2022-09-12T23:36:19;99797.45;;;8.22;66.16
41467;BME280;27205;53.690;19.948;2022-09-12T23:41:23;99791.27;;;8.22;66.06
41467;BME280;27205;53.690;19.948;2022-09-12T23:46:26;99795.09;;;8.15;66.81
41467;BME280;27205;53.690;19.948;2022-09-12T23:51:30;99792.91;;;8.10;66.95
41467;BME280;27205;53.690;19.948;2022-09-12T23:56:33;99792.91;;;8.07;66.94
